< Typhoon 199028 1990 Season Typhoon 199101 >
Typhoon 199029 (RUSS)
General InformationTrack Information on Google MapsDetailed Wind InformationList of All Images || Disaster Info.ResourceGoogle EarthGE AnimationAtom FeedGeoJSON
Detalied Best Track (Time Zone = UTC)
Year Month Day Hour Lat. Long. Pressure (hPa) Wind (kt) Class Image Chart
1990 12 13 18 5.0 173.0 1004 0 2 Image Chart
1990 12 14 00 5.0 172.0 1002 0 2 Image Chart
1990 12 14 06 5.0 171.0 1000 0 2 Image Chart
1990 12 14 12 5.0 169.8 998 35 3 Image Chart
1990 12 14 18 5.1 168.7 998 35 3 Image Chart
1990 12 15 00 5.4 167.5 996 40 3 Image Chart
1990 12 15 06 5.9 166.3 994 40 3 Image Chart
1990 12 15 12 6.5 164.8 990 45 3 Image Chart
1990 12 15 18 6.9 163.3 985 50 4 Image Chart
1990 12 16 00 7.2 161.8 980 55 4 Image Chart
1990 12 16 06 7.6 160.6 980 55 4 Image Chart
1990 12 16 12 7.8 159.7 975 60 4 Image Chart
1990 12 16 18 8.2 158.9 970 65 5 Image Chart
1990 12 17 00 8.9 158.1 960 75 5 Image Chart
1990 12 17 06 9.6 157.3 955 75 5 Image Chart
1990 12 17 12 9.9 156.2 950 80 5 Image Chart
1990 12 17 18 10.0 155.3 950 80 5 Image Chart
1990 12 18 00 10.2 154.3 945 85 5 Image Chart
1990 12 18 06 10.4 153.0 935 90 5 Image Chart
1990 12 18 12 10.6 151.9 925 95 5 Image Chart
1990 12 18 18 10.9 150.9 915 100 5 Image Chart
1990 12 19 00 11.0 150.3 915 100 5 Image Chart
1990 12 19 06 11.1 149.6 920 95 5 Image Chart
1990 12 19 12 11.4 148.9 920 95 5 Image Chart
1990 12 19 18 11.5 148.4 920 95 5 Image Chart
1990 12 20 00 11.9 147.6 920 95 5 Image Chart
1990 12 20 06 12.3 146.5 925 95 5 Image Chart
1990 12 20 12 12.6 145.4 930 90 5 Image Chart
1990 12 20 18 12.8 144.1 930 90 5 Image Chart
1990 12 21 00 13.1 142.9 930 90 5 Image Chart
1990 12 21 06 13.8 141.6 930 90 5 Image Chart
1990 12 21 12 14.6 140.1 930 90 5 Image Chart
1990 12 21 18 15.5 138.9 935 90 5 Image Chart
1990 12 22 00 16.4 138.2 940 85 5 Image Chart
1990 12 22 06 17.6 137.6 945 85 5 Image Chart
1990 12 22 12 19.0 137.7 950 80 5 Image Chart
1990 12 22 18 20.2 138.3 955 75 5 Image Chart
1990 12 23 00 21.7 139.2 965 70 5 Image Chart
1990 12 23 06 22.9 140.5 975 60 4 Image Chart
1990 12 23 12 24.0 142.0 980 55 4 Image Chart
1990 12 23 18 25.0 144.0 990 45 3 Image Chart
1990 12 24 00 26.0 147.0 1000 0 6 Image Chart
1990 12 24 06 27.0 151.0 1004 0 6 Image Chart
Japan Meteorological Agency Best Track Data | Correction Date : 1992-10-21
< Typhoon 199028 1990 Season Typhoon 199101 >

Help